Time;durP1;ratioP1;P1;durP2;ratioP2;P2;SDS_P1;SDS_P2;PMS_P1;PMS_P2;Temp;Humidity;BMP_temperature;BMP_pressure;BME280_temperature;BME280_humidity;BME280_pressure;Samples;Min_cycle;Max_cycle;Signal;HPM_P1;HPM_P2
2022/07/25 00:00:09;;;;;;;3.30;1.50;;;;;;;22.31;68.67;100711.97;4943622;28;102069;-53
2022/07/25 00:02:36;;;;;;;1.88;1.52;;;;;;;22.33;68.42;100710.84;4979100;28;101977;-53
2022/07/25 00:05:05;;;;;;;1.70;1.60;;;;;;;22.31;68.51;100714.75;4977009;28;102187;-53
2022/07/25 00:07:32;;;;;;;1.67;1.58;;;;;;;22.32;68.54;100704.47;4978561;28;104145;-53
2022/07/25 00:09:59;;;;;;;2.95;1.75;;;;;;;22.33;68.43;100716.41;4961817;28;102267;-53
2022/07/25 00:12:25;;;;;;;1.73;1.63;;;;;;;22.33;68.57;100706.09;4940230;28;102188;-54
2022/07/25 00:14:53;;;;;;;1.70;1.60;;;;;;;22.33;68.41;100706.09;4952867;28;103327;-53
2022/07/25 00:17:20;;;;;;;1.50;1.40;;;;;;;22.33;68.47;100706.09;4938452;28;104317;-53
2022/07/25 00:19:52;;;;;;;1.90;1.70;;;;;;;22.33;68.41;100710.84;4952153;28;102279;-53
2022/07/25 00:22:21;;;;;;;2.05;1.60;;;;;;;22.34;68.54;100712.44;4956390;28;102183;-53
2022/07/25 00:24:48;;;;;;;2.38;2.03;;;;;;;22.33;68.58;100716.41;4943786;28;102176;-53
2022/07/25 00:27:14;;;;;;;1.63;1.52;;;;;;;22.33;68.58;100721.94;4947867;28;104149;-53
2022/07/25 00:29:45;;;;;;;1.80;1.70;;;;;;;22.34;68.57;100718.00;4956889;28;102024;-53
2022/07/25 00:32:14;;;;;;;2.17;1.90;;;;;;;22.33;68.57;100719.16;4952936;28;102043;-54
2022/07/25 00:34:41;;;;;;;3.05;2.13;;;;;;;22.31;68.62;100720.31;4964787;28;102713;-53
2022/07/25 00:37:07;;;;;;;3.10;2.03;;;;;;;22.33;68.51;100730.25;4946955;28;103917;-54
2022/07/25 00:39:36;;;;;;;2.28;2.05;;;;;;;22.32;68.70;100737.75;4951708;28;102228;-53
2022/07/25 00:42:02;;;;;;;2.13;1.92;;;;;;;22.31;68.82;100736.94;4952479;28;102016;-53
2022/07/25 00:44:31;;;;;;;2.40;2.20;;;;;;;22.31;68.74;100731.41;4946481;28;102322;-53
2022/07/25 00:46:59;;;;;;;3.42;2.15;;;;;;;22.31;68.59;100742.47;4951313;28;104115;-53
2022/07/25 00:49:26;;;;;;;2.40;2.20;;;;;;;22.31;68.61;100736.94;4977784;28;102006;-53
2022/07/25 00:51:53;;;;;;;3.42;2.40;;;;;;;22.30;68.63;100740.88;4969089;28;102175;-53
2022/07/25 00:54:20;;;;;;;2.78;2.42;;;;;;;22.30;68.56;100740.06;4956106;28;102257;-53
2022/07/25 00:56:49;;;;;;;2.50;2.30;;;;;;;22.31;68.58;100748.03;4957684;28;104390;-53
2022/07/25 00:59:18;;;;;;;2.53;2.17;;;;;;;22.30;68.61;100746.41;4958721;28;102155;-53
2022/07/25 01:01:46;;;;;;;3.05;2.15;;;;;;;22.31;68.80;100748.03;4959614;28;101953;-53
2022/07/25 01:04:14;;;;;;;4.47;2.60;;;;;;;22.30;68.32;100754.72;4943889;28;101942;-53
2022/07/25 01:06:43;;;;;;;2.50;2.30;;;;;;;22.30;68.49;100746.41;4939114;28;104955;-53
2022/07/25 01:09:10;;;;;;;3.72;2.60;;;;;;;22.29;68.50;100753.13;4939217;28;102267;-53
2022/07/25 01:11:37;;;;;;;2.65;2.45;;;;;;;22.29;68.62;100753.13;4942679;28;102368;-53
2022/07/25 01:14:05;;;;;;;2.63;2.30;;;;;;;22.30;68.57;100751.97;4971134;28;102241;-53
2022/07/25 01:16:32;;;;;;;3.30;2.37;;;;;;;22.30;68.64;100765.81;4938371;28;103984;-53
2022/07/25 01:18:58;;;;;;;3.03;2.50;;;;;;;22.31;68.74;100770.22;4939367;28;102120;-53
2022/07/25 01:21:27;;;;;;;2.70;2.50;;;;;;;22.30;68.46;100767.78;4967956;28;102220;-53
2022/07/25 01:23:53;;;;;;;2.58;2.30;;;;;;;22.29;68.68;100772.53;4960711;28;102230;-53
2022/07/25 01:26:20;;;;;;;2.47;2.28;;;;;;;22.29;68.77;100783.63;4946089;28;104092;-53
2022/07/25 01:28:47;;;;;;;3.20;2.55;;;;;;;22.29;68.52;100783.63;4938621;28;102170;-53
2022/07/25 01:31:13;;;;;;;2.90;2.70;;;;;;;22.29;68.58;100782.81;4953555;28;102243;-53
2022/07/25 01:33:40;;;;;;;2.50;2.30;;;;;;;22.29;68.56;100789.16;4967484;28;102408;-53
2022/07/25 01:36:07;;;;;;;2.80;2.60;;;;;;;22.28;68.50;100787.53;4938087;28;104055;-53
2022/07/25 01:38:35;;;;;;;3.05;2.75;;;;;;;22.29;68.74;100778.09;4940339;28;102070;-53
2022/07/25 01:41:01;;;;;;;3.30;2.63;;;;;;;22.29;68.69;100780.06;4957482;28;102365;-53
2022/07/25 01:43:28;;;;;;;2.70;2.50;;;;;;;22.28;68.67;100773.66;4963367;28;102153;-53
2022/07/25 01:45:55;;;;;;;3.53;2.83;;;;;;;22.29;68.51;100780.84;4957937;28;104083;-53
2022/07/25 01:48:23;;;;;;;2.60;2.40;;;;;;;22.28;68.82;100762.59;4959284;28;102202;-53
2022/07/25 01:50:50;;;;;;;2.90;2.70;;;;;;;22.27;68.77;100766.53;4942427;28;102591;-53
2022/07/25 01:53:16;;;;;;;2.92;2.72;;;;;;;22.28;68.59;100776.44;4966540;28;102518;-53
2022/07/25 01:55:45;;;;;;;2.92;2.72;;;;;;;22.28;68.79;100773.66;4955854;28;104070;-53
2022/07/25 01:58:12;;;;;;;2.60;2.40;;;;;;;22.28;68.71;100776.44;4951250;28;102287;-53
2022/07/25 02:00:39;;;;;;;2.83;2.60;;;;;;;22.28;68.69;100781.19;4937066;28;102116;-54
2022/07/25 02:05:50;;;;;;;2.85;2.65;;;;;;;22.27;68.78;100780.38;4975448;28;104044;-53
2022/07/25 02:08:17;;;;;;;4.03;2.47;;;;;;;22.27;68.70;100780.38;4959250;28;102019;-53
2022/07/25 02:10:45;;;;;;;3.55;2.40;;;;;;;22.28;68.69;100781.19;4945782;28;101993;-53
2022/07/25 02:13:15;;;;;;;2.80;2.60;;;;;;;22.27;68.79;100780.38;4970708;28;102069;-53
2022/07/25 02:15:42;;;;;;;3.20;2.50;;;;;;;22.27;69.07;100802.56;4965270;28;104250;-53
2022/07/25 02:18:08;;;;;;;3.60;2.58;;;;;;;22.26;68.73;100795.41;4955671;28;102948;-53
2022/07/25 02:20:35;;;;;;;2.67;2.30;;;;;;;22.26;68.65;100798.19;4942132;28;102076;-53
2022/07/25 02:23:02;;;;;;;3.00;2.80;;;;;;;22.27;68.90;100802.56;4954633;28;102179;-53
2022/07/25 02:25:29;;;;;;;2.83;2.63;;;;;;;22.26;68.88;100795.41;4955316;28;103717;-54
2022/07/25 02:27:57;;;;;;;2.55;2.35;;;;;;;22.26;68.78;100806.50;4969891;28;102245;-53
2022/07/25 02:30:25;;;;;;;3.72;2.63;;;;;;;22.26;68.97;100806.50;4954139;28;102486;-53
2022/07/25 02:32:52;;;;;;;3.00;2.70;;;;;;;22.26;68.61;100803.72;4969108;28;102177;-53
2022/07/25 02:35:20;;;;;;;4.13;2.85;;;;;;;22.26;68.90;100795.41;4950631;28;104044;-53
2022/07/25 02:37:47;;;;;;;2.50;2.30;;;;;;;22.25;68.73;100802.13;4950401;28;102111;-53
2022/07/25 02:40:13;;;;;;;2.33;2.15;;;;;;;22.26;68.76;100806.50;4963654;28;102622;-53
2022/07/25 02:42:40;;;;;;;2.78;2.58;;;;;;;22.25;68.92;100799.34;4968430;28;102167;-53
2022/07/25 02:45:09;;;;;;;3.28;2.80;;;;;;;22.25;68.73;100798.50;4975324;28;103959;-53
2022/07/25 02:47:37;;;;;;;2.95;2.75;;;;;;;22.25;68.70;100804.88;4964401;28;102272;-54
2022/07/25 02:50:04;;;;;;;3.53;2.75;;;;;;;22.24;68.72;100799.69;4958388;28;101984;-54
2022/07/25 02:52:31;;;;;;;2.92;2.60;;;;;;;22.23;68.70;100796.09;4956607;28;102240;-54
2022/07/25 02:54:57;;;;;;;3.65;2.90;;;;;;;22.25;69.10;100799.34;4949538;28;103896;-54
2022/07/25 02:57:24;;;;;;;2.92;2.60;;;;;;;22.25;68.86;100801.28;4954439;28;102500;-53
2022/07/25 02:59:50;;;;;;;2.88;2.55;;;;;;;22.23;68.84;100801.66;4975375;28;102473;-53
2022/07/25 03:02:18;;;;;;;3.78;2.70;;;;;;;22.25;69.08;100802.13;4975076;28;102256;-53
2022/07/25 03:04:45;;;;;;;3.10;2.88;;;;;;;22.24;68.66;100797.72;4953725;28;104056;-53
2022/07/25 03:07:12;;;;;;;3.08;2.80;;;;;;;22.23;68.69;100807.19;4951042;28;102178;-53
2022/07/25 03:09:39;;;;;;;3.13;2.72;;;;;;;22.25;68.98;100809.59;4974872;28;102173;-53
2022/07/25 03:12:06;;;;;;;3.78;3.15;;;;;;;22.25;68.70;100801.28;4979805;28;102657;-53
2022/07/25 03:14:33;;;;;;;3.17;2.92;;;;;;;22.26;68.76;100817.59;4950426;28;103902;-53
2022/07/25 03:17:00;;;;;;;3.72;2.88;;;;;;;22.25;69.01;100810.44;4961834;28;102485;-53
2022/07/25 03:19:28;;;;;;;3.20;2.90;;;;;;;22.23;69.01;100804.41;4964513;28;102288;-53
2022/07/25 03:21:54;;;;;;;3.27;3.00;;;;;;;22.25;68.89;100809.59;4960195;28;102139;-53
2022/07/25 03:24:21;;;;;;;3.20;2.95;;;;;;;22.24;68.93;100808.00;4962268;28;103875;-53
2022/07/25 03:26:47;;;;;;;3.05;2.70;;;;;;;22.23;68.80;100807.19;4978747;28;102154;-53
2022/07/25 03:29:14;;;;;;;3.13;2.83;;;;;;;22.25;68.74;100809.59;4968496;28;102179;-53
2022/07/25 03:31:41;;;;;;;3.13;2.83;;;;;;;22.23;68.92;100812.72;4965171;28;102064;-53
2022/07/25 03:34:07;;;;;;;6.85;3.10;;;;;;;22.23;68.71;100801.66;4960338;28;103905;-53
2022/07/25 03:36:35;;;;;;;3.67;3.38;;;;;;;22.25;68.63;100798.50;4978704;28;102201;-53
2022/07/25 03:39:02;;;;;;;3.30;2.80;;;;;;;22.25;68.96;100801.28;4958549;28;102107;-53
2022/07/25 03:41:28;;;;;;;3.00;2.80;;;;;;;22.24;68.70;100805.22;4956531;28;102213;-53
2022/07/25 03:43:55;;;;;;;3.80;3.08;;;;;;;22.25;68.83;100804.06;4956105;28;104060;-53
2022/07/25 03:46:22;;;;;;;3.40;2.92;;;;;;;22.23;68.77;100798.88;4944721;28;102234;-53
2022/07/25 03:48:49;;;;;;;3.67;3.25;;;;;;;22.24;68.60;100805.22;4958155;28;101950;-53
2022/07/25 03:51:15;;;;;;;4.80;3.17;;;;;;;22.24;68.66;100803.25;4950504;28;102707;-53
2022/07/25 03:54:02;;;;;;;3.50;3.20;;;;;;;22.25;68.98;100807.66;4964229;28;103858;-53
2022/07/25 03:56:29;;;;;;;3.15;2.95;;;;;;;22.24;68.60;100808.81;4957441;28;102347;-53
2022/07/25 03:58:56;;;;;;;4.63;3.20;;;;;;;22.25;68.88;100804.88;4976876;28;102605;-53
2022/07/25 04:01:22;;;;;;;4.00;3.70;;;;;;;22.23;68.56;100812.72;4949900;28;102138;-53
2022/07/25 04:03:49;;;;;;;3.42;3.13;;;;;;;22.23;68.73;100801.66;4973752;28;103883;-53
2022/07/25 04:06:15;;;;;;;3.50;3.20;;;;;;;22.25;68.85;100799.34;4939388;28;102199;-53
2022/07/25 04:08:43;;;;;;;3.50;3.20;;;;;;;22.24;68.75;100803.25;4937772;28;102363;-53
2022/07/25 04:11:10;;;;;;;;;;;;;;;22.25;68.59;100798.50;4962833;28;102151;-53
2022/07/25 04:13:37;;;;;;;3.83;3.08;;;;;;;22.24;68.83;100796.91;4938381;28;104041;-53
2022/07/25 04:16:04;;;;;;;4.35;3.13;;;;;;;22.24;68.78;100797.72;4956280;28;102101;-54
2022/07/25 04:18:33;;;;;;;3.75;3.30;;;;;;;22.26;68.72;100800.16;4957846;28;102220;-53
2022/07/25 04:20:59;;;;;;;3.55;3.25;;;;;;;22.23;68.62;100801.66;4958448;28;102140;-53
2022/07/25 04:23:27;;;;;;;5.55;3.50;;;;;;;22.26;68.54;100805.69;4953053;28;104205;-53
2022/07/25 04:25:55;;;;;;;3.63;3.30;;;;;;;22.26;68.73;100798.19;4960602;28;102331;-53
2022/07/25 04:28:24;;;;;;;3.80;3.47;;;;;;;22.27;68.64;100802.56;4928889;28;102173;-53
2022/07/25 04:30:51;;;;;;;3.60;3.30;;;;;;;22.28;68.55;100808.91;4937696;28;102610;-54
2022/07/25 04:33:18;;;;;;;4.05;3.65;;;;;;;22.28;68.67;100806.94;4930741;28;103935;-54
2022/07/25 04:35:45;;;;;;;3.20;3.00;;;;;;;22.29;68.55;100811.34;4935356;28;104735;-53
2022/07/25 04:38:11;;;;;;;4.07;3.78;;;;;;;22.30;68.46;100812.97;4937640;28;102285;-53
2022/07/25 04:40:38;;;;;;;3.50;3.20;;;;;;;22.31;68.68;100814.56;4932778;28;102377;-53
2022/07/25 04:43:08;;;;;;;4.05;3.65;;;;;;;22.31;68.59;100814.56;4937874;28;104116;-53
2022/07/25 04:45:35;;;;;;;5.20;3.63;;;;;;;22.32;68.53;100815.38;4924321;28;103570;-53
2022/07/25 04:48:02;;;;;;;3.70;3.30;;;;;;;22.33;68.54;100816.19;4933483;28;102301;-53
2022/07/25 04:50:29;;;;;;;4.10;3.17;;;;;;;22.35;68.54;100824.97;4929701;28;102085;-53
2022/07/25 04:52:56;;;;;;;3.88;3.28;;;;;;;22.36;68.48;100826.56;4927191;28;103961;-53
2022/07/25 04:55:23;;;;;;;3.75;3.45;;;;;;;22.36;68.62;100823.81;4936690;28;102117;-53
2022/07/25 04:57:49;;;;;;;4.30;3.90;;;;;;;22.37;68.61;100828.22;4919727;28;102128;-53
2022/07/25 05:00:17;;;;;;;4.80;3.58;;;;;;;22.38;68.51;100835.38;4920064;28;102113;-53
2022/07/25 05:02:44;;;;;;;4.90;4.27;;;;;;;22.37;68.43;100833.75;4937452;28;103971;-53
2022/07/25 05:05:10;;;;;;;4.15;3.85;;;;;;;22.41;68.03;100829.13;4935612;28;102423;-53
2022/07/25 05:07:37;;;;;;;6.65;3.97;;;;;;;22.41;68.38;100835.47;4924256;28;102252;-53
2022/07/25 05:10:05;;;;;;;3.83;3.47;;;;;;;22.43;68.04;100848.97;4923037;28;102418;-53
2022/07/25 05:12:31;;;;;;;4.05;3.65;;;;;;;22.42;68.30;100845.41;4931342;28;104031;-53
2022/07/25 05:14:58;;;;;;;4.20;3.80;;;;;;;22.44;68.02;100842.28;4920818;28;102059;-53
2022/07/25 05:17:26;;;;;;;4.32;4.00;;;;;;;22.45;68.14;100846.69;4918045;28;102606;-53
2022/07/25 05:19:53;;;;;;;4.30;4.00;;;;;;;22.45;68.48;100857.78;4935019;28;102117;-53
2022/07/25 05:22:19;;;;;;;4.13;3.72;;;;;;;22.45;68.03;100849.44;4935788;28;103851;-53
2022/07/25 05:24:46;;;;;;;4.20;3.90;;;;;;;22.45;68.28;100846.69;4918791;28;102313;-53
2022/07/25 05:27:12;;;;;;;4.65;4.18;;;;;;;22.47;67.98;100850.72;4919695;28;102282;-53
2022/07/25 05:29:39;;;;;;;4.30;3.90;;;;;;;22.48;68.11;100854.31;4943696;28;102127;-53
2022/07/25 05:32:05;;;;;;;4.20;3.90;;;;;;;22.49;68.24;100859.50;4954424;28;103962;-53
2022/07/25 05:34:33;;;;;;;5.05;4.10;;;;;;;22.50;68.28;100863.06;4940134;28;102189;-53
2022/07/25 05:37:00;;;;;;;5.38;4.88;;;;;;;22.50;68.15;100852.81;4951980;28;102275;-54
2022/07/25 05:39:26;;;;;;;5.43;4.47;;;;;;;22.52;68.07;100858.00;4948606;28;102205;-53
2022/07/25 05:41:53;;;;;;;4.57;4.18;;;;;;;22.53;68.13;100854.84;4951755;28;103446;-53
2022/07/25 05:44:20;;;;;;;4.70;4.30;;;;;;;22.54;68.25;100850.16;4957115;28;101889;-53
2022/07/25 05:46:46;;;;;;;5.75;4.97;;;;;;;22.57;67.93;100843.06;4950781;28;102077;-54
2022/07/25 05:49:16;;;;;;;5.63;5.13;;;;;;;22.58;68.07;100845.50;4938942;28;102171;-54
2022/07/25 05:51:45;;;;;;;5.53;5.03;;;;;;;22.59;68.08;100846.31;4946566;28;103936;-53
2022/07/25 05:54:11;;;;;;;5.33;4.83;;;;;;;22.60;68.21;100843.19;4952658;28;102344;-53
2022/07/25 05:56:38;;;;;;;5.95;5.25;;;;;;;22.61;68.19;100828.19;4949014;28;102267;-53
2022/07/25 05:59:04;;;;;;;6.85;5.70;;;;;;;22.64;68.11;100832.19;4938184;28;102181;-53
2022/07/25 06:01:31;;;;;;;5.40;4.90;;;;;;;22.63;68.27;100828.63;4946043;28;104287;-58
2022/07/25 06:03:57;;;;;;;5.60;5.10;;;;;;;22.64;68.20;100821.09;4937349;28;102324;-53
2022/07/25 06:06:24;;;;;;;6.85;5.90;;;;;;;22.67;68.13;100821.19;4942889;28;102577;-53
2022/07/25 06:08:52;;;;;;;6.78;6.05;;;;;;;22.68;68.31;100822.00;4944199;28;102493;-53
2022/07/25 06:11:18;;;;;;;7.05;5.57;;;;;;;22.68;68.12;100817.25;4942556;28;104310;-54
2022/07/25 06:13:46;;;;;;;5.90;5.40;;;;;;;22.69;68.00;100818.09;4955900;28;102717;-56
2022/07/25 06:16:13;;;;;;;6.68;5.85;;;;;;;22.71;68.12;100816.56;4949781;28;101921;-54
2022/07/25 06:18:40;;;;;;;6.15;5.47;;;;;;;22.71;68.07;100804.66;4938899;28;102345;-55
2022/07/25 06:21:07;;;;;;;6.35;5.85;;;;;;;22.71;68.16;100811.00;4949114;28;103982;-53
2022/07/25 06:23:33;;;;;;;6.20;5.57;;;;;;;22.72;67.89;100809.88;4945922;28;102015;-54
2022/07/25 06:26:03;;;;;;;6.50;6.00;;;;;;;22.75;67.82;100803.59;4947828;28;102647;-54
2022/07/25 06:28:30;;;;;;;;;;;;;;;22.73;68.09;100796.81;4953214;28;102498;-56
2022/07/25 06:30:56;;;;;;;7.13;6.38;;;;;;;22.73;68.25;100800.38;4953372;28;103851;-54
2022/07/25 06:33:24;;;;;;;8.60;6.75;;;;;;;22.74;68.05;100802.00;4956162;28;102108;-53
2022/07/25 06:35:51;;;;;;;6.97;6.38;;;;;;;22.73;68.16;100803.16;4951700;28;101976;-53
2022/07/25 06:38:17;;;;;;;7.00;6.47;;;;;;;22.75;68.15;100803.59;4949481;28;102255;-53
2022/07/25 06:40:45;;;;;;;6.80;6.18;;;;;;;22.77;68.19;100804.06;4946535;28;104066;-53
2022/07/25 06:43:13;;;;;;;7.00;6.47;;;;;;;22.77;67.80;100804.06;4938289;28;102499;-53
2022/07/25 06:45:41;;;;;;;7.07;6.37;;;;;;;22.78;68.08;100811.22;4949065;28;102206;-53
2022/07/25 06:48:08;;;;;;;12.88;6.68;;;;;;;22.79;68.10;100804.53;4953370;28;103044;-53
2022/07/25 06:50:36;;;;;;;6.80;6.30;;;;;;;22.79;67.79;100807.31;4955741;28;104090;-53
2022/07/25 06:53:02;;;;;;;6.78;6.18;;;;;;;22.78;67.95;100816.78;4956793;28;101817;-53
2022/07/25 06:55:29;;;;;;;7.03;6.32;;;;;;;22.78;68.21;100811.22;4958824;28;102259;-53
2022/07/25 06:57:55;;;;;;;7.05;6.35;;;;;;;22.78;68.27;100816.78;4959718;28;102074;-54
2022/07/25 07:00:23;;;;;;;6.70;6.10;;;;;;;22.80;68.29;100810.88;4951219;28;103946;-53
2022/07/25 07:02:54;;;;;;;7.20;6.63;;;;;;;22.79;68.04;100812.88;4958877;28;102715;-53
2022/07/25 07:05:21;;;;;;;7.22;6.60;;;;;;;22.83;67.85;100806.59;4951218;28;102277;-54
2022/07/25 07:07:48;;;;;;;7.13;6.53;;;;;;;22.83;67.80;100809.34;4957051;28;102641;-53
2022/07/25 07:10:15;;;;;;;7.13;6.53;;;;;;;22.84;68.00;100813.78;4953286;28;104074;-53
2022/07/25 07:12:42;;;;;;;8.48;6.70;;;;;;;22.85;67.46;100810.63;4956305;28;102281;-54
2022/07/25 07:15:09;;;;;;;7.20;6.60;;;;;;;22.85;67.89;100815.38;4952881;28;102119;-54
2022/07/25 07:17:37;;;;;;;7.07;6.47;;;;;;;22.84;68.03;100813.78;4960026;28;102144;-53
2022/07/25 07:20:06;;;;;;;6.80;5.82;;;;;;;22.82;68.10;100821.63;4959191;28;104214;-54
2022/07/25 07:22:42;;;;;;;6.57;6.05;;;;;;;22.83;68.20;100817.69;4952510;28;102567;-54
2022/07/25 07:25:11;;;;;;;6.45;5.95;;;;;;;22.82;68.27;100813.28;4954221;28;102004;-53
2022/07/25 07:27:40;;;;;;;6.90;6.40;;;;;;;22.79;68.28;100820.34;4955172;28;102152;-53
2022/07/25 07:30:08;;;;;;;7.20;6.50;;;;;;;22.78;68.25;100819.53;4938791;28;104122;-53
2022/07/25 07:32:36;;;;;;;6.97;6.45;;;;;;;22.78;68.19;100827.06;4954221;28;102477;-53
2022/07/25 07:35:04;;;;;;;7.30;6.60;;;;;;;22.78;68.37;100830.66;4946978;28;102442;-53
2022/07/25 07:37:30;;;;;;;6.60;6.10;;;;;;;22.79;68.23;100823.97;4949400;28;102644;-53
2022/07/25 07:39:57;;;;;;;7.40;6.78;;;;;;;22.82;67.97;100827.16;4949323;28;104182;-53
2022/07/25 07:42:35;;;;;;;7.30;6.70;;;;;;;22.83;67.81;100823.22;4941300;28;102246;-54
2022/07/25 07:45:02;;;;;;;7.38;6.63;;;;;;;22.82;67.92;100822.44;4946702;28;102376;-54
2022/07/25 07:47:29;;;;;;;7.82;7.13;;;;;;;22.81;68.36;100825.56;4957914;28;102256;-54
2022/07/25 07:49:57;;;;;;;6.50;6.00;;;;;;;22.77;68.31;100820.72;4945107;28;103919;-54
2022/07/25 07:52:23;;;;;;;6.70;6.20;;;;;;;22.78;67.90;100822.31;4950447;28;102299;-54
2022/07/25 07:57:35;;;;;;;7.07;6.47;;;;;;;22.79;68.36;100823.13;4942997;28;102227;-53
2022/07/25 08:00:03;;;;;;;7.15;6.60;;;;;;;22.79;68.30;100821.19;4952180;28;103716;-53
2022/07/25 08:02:30;;;;;;;7.72;6.80;;;;;;;22.79;68.17;100818.41;4954353;28;102278;-53
2022/07/25 08:04:58;;;;;;;9.70;7.03;;;;;;;22.82;68.14;100816.06;4957562;28;102620;-54
2022/07/25 08:07:24;;;;;;;7.55;6.90;;;;;;;22.82;68.25;100816.06;4956709;28;102469;-53
2022/07/25 08:09:51;;;;;;;8.23;7.53;;;;;;;22.84;68.00;100808.22;4955225;28;103954;-53
2022/07/25 08:12:20;;;;;;;7.85;7.15;;;;;;;22.85;68.03;100810.63;4943907;28;102078;-53
2022/07/25 08:14:47;;;;;;;7.63;6.93;;;;;;;22.85;68.16;100809.81;4952301;28;102177;-53
2022/07/25 08:17:14;;;;;;;7.88;7.18;;;;;;;22.86;67.92;100811.44;4952697;28;102525;-53
2022/07/25 08:19:40;;;;;;;7.57;6.40;;;;;;;22.84;68.09;100808.22;4956377;28;104105;-53
2022/07/25 08:22:08;;;;;;;8.63;6.72;;;;;;;22.83;68.24;100806.59;4957240;28;101924;-53
2022/07/25 08:24:36;;;;;;;6.57;5.97;;;;;;;22.82;68.03;100813.28;4955198;28;102374;-54
2022/07/25 08:27:03;;;;;;;6.65;6.05;;;;;;;22.79;68.25;100812.03;4956822;28;102412;-54
2022/07/25 08:29:29;;;;;;;6.78;6.18;;;;;;;22.78;68.38;100807.66;4933810;28;103959;-53
2022/07/25 08:31:58;;;;;;;6.88;6.38;;;;;;;22.79;68.24;100804.53;4938081;28;102199;-53
2022/07/25 08:34:24;;;;;;;7.22;6.53;;;;;;;22.81;68.23;100814.47;4937890;28;102327;-54
2022/07/25 08:36:51;;;;;;;7.63;6.93;;;;;;;22.82;68.08;100816.06;4924120;28;102540;-53
2022/07/25 08:39:19;;;;;;;6.78;5.95;;;;;;;22.79;68.49;100815.63;4934370;28;103907;-53
2022/07/25 08:41:46;;;;;;;6.95;6.35;;;;;;;22.81;68.21;100803.38;4933987;28;102402;-54
2022/07/25 08:44:15;;;;;;;7.00;6.32;;;;;;;22.81;68.28;100808.91;4932346;28;102057;-53
2022/07/25 08:46:43;;;;;;;6.45;5.95;;;;;;;22.81;68.24;100815.28;4938101;28;103024;-53
2022/07/25 08:49:09;;;;;;;6.30;5.70;;;;;;;22.82;68.17;100804.97;4930109;28;103918;-53
2022/07/25 08:51:37;;;;;;;6.88;6.18;;;;;;;22.83;68.19;100814.91;4921414;28;102665;-53
2022/07/25 08:54:05;;;;;;;7.28;6.68;;;;;;;22.83;68.16;100815.75;4929349;28;102183;-53
2022/07/25 08:56:33;;;;;;;6.80;6.25;;;;;;;22.82;67.72;100816.06;4928927;28;102295;-53
2022/07/25 08:58:59;;;;;;;7.10;6.40;;;;;;;22.83;68.05;100814.91;4935651;28;104072;-53
2022/07/25 09:01:26;;;;;;;7.30;6.63;;;;;;;22.82;68.25;100808.56;4935371;28;102008;-53
2022/07/25 09:03:52;;;;;;;6.80;6.25;;;;;;;22.82;68.01;100799.44;4932065;28;102386;-53
2022/07/25 09:06:21;;;;;;;7.03;6.43;;;;;;;22.83;68.12;100798.25;4931222;28;102275;-53
2022/07/25 09:08:56;;;;;;;6.72;6.10;;;;;;;22.82;68.30;100804.97;4925035;28;104114;-53
2022/07/25 09:11:27;;;;;;;7.32;6.63;;;;;;;22.83;67.91;100795.47;4922671;28;101960;-53
2022/07/25 09:14:00;;;;;;;7.05;6.35;;;;;;;22.82;68.05;100804.97;4920328;28;102032;-54
2022/07/25 09:16:29;;;;;;;6.90;6.20;;;;;;;22.82;67.96;100804.97;4927523;28;103381;-53
2022/07/25 09:19:06;;;;;;;6.85;6.32;;;;;;;22.81;68.44;100795.84;4926637;28;104002;-53
2022/07/25 09:21:33;;;;;;;6.85;6.25;;;;;;;22.79;68.08;100793.44;4922751;28;102353;-54
2022/07/25 09:24:08;;;;;;;5.88;5.40;;;;;;;22.82;68.21;100810.53;4923296;28;102204;-53
2022/07/25 09:26:43;;;;;;;5.80;5.35;;;;;;;22.79;67.87;100796.22;4936365;28;102199;-54
2022/07/25 09:29:19;;;;;;;6.38;5.78;;;;;;;22.81;67.62;100797.81;4944163;28;104299;-53
2022/07/25 09:31:46;;;;;;;6.60;6.00;;;;;;;22.82;67.79;100788.31;4950283;28;102512;-53
2022/07/25 09:34:16;;;;;;;6.22;5.70;;;;;;;22.82;67.79;100793.88;4952195;28;102172;-53
2022/07/25 09:36:51;;;;;;;6.35;5.85;;;;;;;22.81;68.05;100793.06;4945615;28;102634;-54
2022/07/25 09:39:18;;;;;;;6.22;5.72;;;;;;;22.81;67.88;100792.28;4952828;28;103968;-53
2022/07/25 09:41:44;;;;;;;5.85;5.25;;;;;;;22.79;68.04;100784.28;4956829;28;102208;-53
2022/07/25 09:44:16;;;;;;;5.45;5.05;;;;;;;22.79;67.87;100785.13;4950272;28;102323;-53
2022/07/25 09:46:43;;;;;;;6.20;5.70;;;;;;;22.81;67.68;100786.72;4947235;28;102508;-53
2022/07/25 09:49:13;;;;;;;6.38;5.78;;;;;;;22.81;67.90;100795.03;4950625;28;103926;-53
2022/07/25 09:51:40;;;;;;;5.60;5.15;;;;;;;22.79;67.87;100793.44;4956876;28;102282;-53
2022/07/25 09:54:07;;;;;;;5.68;5.28;;;;;;;22.79;67.70;100795.38;4956094;28;102266;-53
2022/07/25 09:56:35;;;;;;;6.40;5.90;;;;;;;22.78;67.96;100780.69;4951708;28;102594;-53
2022/07/25 09:59:03;;;;;;;6.10;5.68;;;;;;;22.78;67.95;100786.25;4951310;28;106271;-53
2022/07/25 10:01:36;;;;;;;6.05;5.55;;;;;;;22.78;67.90;100791.00;4946005;28;102399;-53
2022/07/25 10:04:13;;;;;;;5.60;5.15;;;;;;;22.78;67.92;100782.69;4937624;28;102359;-53
2022/07/25 10:06:48;;;;;;;5.88;5.38;;;;;;;22.77;67.98;100770.78;4949209;28;102888;-53
2022/07/25 10:09:18;;;;;;;5.18;4.78;;;;;;;22.78;67.78;100783.47;4949105;28;104146;-53
2022/07/25 10:12:03;;;;;;;5.82;5.40;;;;;;;22.79;67.90;100778.72;4941769;28;102435;-53
2022/07/25 10:14:32;;;;;;;5.25;4.85;;;;;;;22.79;67.80;100779.56;4951770;28;102422;-53
2022/07/25 10:17:04;;;;;;;5.68;5.18;;;;;;;22.78;67.87;100788.22;4944772;28;102364;-53
2022/07/25 10:19:43;;;;;;;5.15;4.75;;;;;;;22.77;67.92;100772.75;4949323;28;108288;-54
2022/07/25 10:22:10;;;;;;;5.00;4.60;;;;;;;22.77;67.87;100770.78;4942123;28;102277;-53
2022/07/25 10:24:38;;;;;;;5.47;5.07;;;;;;;22.77;67.55;100773.56;4958991;28;102310;-54
2022/07/25 10:27:09;;;;;;;5.40;5.00;;;;;;;22.76;67.90;100773.91;4955521;28;102452;-54
2022/07/25 10:29:36;;;;;;;5.28;4.88;;;;;;;22.75;67.73;100764.75;4948028;28;103716;-54
2022/07/25 10:32:09;;;;;;;5.68;5.25;;;;;;;22.76;67.37;100773.91;4947977;28;102424;-53
2022/07/25 10:34:36;;;;;;;4.78;4.47;;;;;;;22.74;67.67;100765.94;4946775;28;103718;-53
2022/07/25 10:37:10;;;;;;;5.13;4.72;;;;;;;22.73;67.42;100757.97;4958640;28;102401;-53
2022/07/25 10:39:38;;;;;;;5.07;4.68;;;;;;;22.75;67.62;100755.63;4954038;28;104173;-53
2022/07/25 10:42:05;;;;;;;5.30;4.80;;;;;;;22.73;67.51;100747.69;4950403;28;104192;-53
2022/07/25 10:44:40;;;;;;;4.88;4.47;;;;;;;22.74;67.62;100738.19;4945433;28;102454;-53
2022/07/25 10:47:11;;;;;;;5.10;4.70;;;;;;;22.73;67.45;100746.88;4947615;28;102395;-53
2022/07/25 10:49:42;;;;;;;5.20;4.80;;;;;;;22.76;67.24;100735.06;4953016;28;103938;-53
2022/07/25 10:52:14;;;;;;;5.50;4.53;;;;;;;22.73;67.55;100744.91;4952154;28;103130;-53
2022/07/25 10:54:41;;;;;;;5.40;4.93;;;;;;;22.72;67.54;100732.19;4946107;28;102165;-54
2022/07/25 10:57:14;;;;;;;4.53;4.22;;;;;;;22.74;67.33;100726.28;4951108;28;102742;-53
2022/07/25 10:59:41;;;;;;;4.65;4.35;;;;;;;22.71;67.43;100733.34;4951345;28;104445;-54
2022/07/25 11:02:16;;;;;;;4.70;4.30;;;;;;;22.70;67.42;100747.56;4956848;28;102359;-53
2022/07/25 11:04:44;;;;;;;4.65;4.25;;;;;;;22.70;67.53;100731.72;4951424;28;102179;-53
2022/07/25 11:07:13;;;;;;;4.60;4.30;;;;;;;22.69;67.06;100730.13;4959066;28;102461;-53
2022/07/25 11:09:39;;;;;;;;;;;;;;;22.71;66.42;100738.09;4957406;28;103817;-53
2022/07/25 11:12:14;;;;;;;4.40;4.10;;;;;;;22.69;67.20;100730.13;4957866;28;102728;-53
2022/07/25 11:14:42;;;;;;;4.47;4.15;;;;;;;22.68;67.08;100722.13;4954555;28;102888;-53
2022/07/25 11:17:18;;;;;;;4.80;4.43;;;;;;;22.69;67.09;100738.44;4949954;28;102212;-53
2022/07/25 11:19:54;;;;;;;4.32;4.03;;;;;;;22.69;67.46;100737.66;4948024;28;103993;-53
2022/07/25 11:22:20;;;;;;;4.68;4.10;;;;;;;22.67;67.14;100737.97;4957619;28;102159;-54
2022/07/25 11:24:47;;;;;;;4.72;4.32;;;;;;;22.68;67.10;100738.78;4955285;28;102524;-54